sensor_id;sensor_type;location;lat;lon;timestamp;temperature;humidity
2100;DHT22;1055;48.854;9.302;2022-11-20T00:00:00;6.20;99.90
2100;DHT22;1055;48.854;9.302;2022-11-20T00:02:26;6.20;99.90
2100;DHT22;1055;48.854;9.302;2022-11-20T00:04:51;6.40;99.90
2100;DHT22;1055;48.854;9.302;2022-11-20T00:07:17;6.50;99.90
2100;DHT22;1055;48.854;9.302;2022-11-20T00:09:42;6.50;99.90
2100;DHT22;1055;48.854;9.302;2022-11-20T00:12:09;6.20;99.90
2100;DHT22;1055;48.854;9.302;2022-11-20T00:14:35;6.10;99.90
2100;DHT22;1055;48.854;9.302;2022-11-20T00:17:00;6.40;99.90
2100;DHT22;1055;48.854;9.302;2022-11-20T00:19:26;6.50;99.90
2100;DHT22;1055;48.854;9.302;2022-11-20T00:21:52;6.50;99.90
2100;DHT22;1055;48.854;9.302;2022-11-20T00:24:19;6.40;99.90
2100;DHT22;1055;48.854;9.302;2022-11-20T00:26:44;6.60;99.90
2100;DHT22;1055;48.854;9.302;2022-11-20T00:29:10;6.60;99.90
2100;DHT22;1055;48.854;9.302;2022-11-20T00:31:36;6.40;99.90
2100;DHT22;1055;48.854;9.302;2022-11-20T00:34:02;6.00;99.90
2100;DHT22;1055;48.854;9.302;2022-11-20T00:36:31;6.10;99.90
2100;DHT22;1055;48.854;9.302;2022-11-20T00:38:58;6.30;99.90
2100;DHT22;1055;48.854;9.302;2022-11-20T00:41:25;6.20;99.90
2100;DHT22;1055;48.854;9.302;2022-11-20T00:43:55;6.30;99.90
2100;DHT22;1055;48.854;9.302;2022-11-20T00:46:23;5.90;99.90
2100;DHT22;1055;48.854;9.302;2022-11-20T00:48:49;6.10;99.90
2100;DHT22;1055;48.854;9.302;2022-11-20T00:51:17;6.20;99.90
2100;DHT22;1055;48.854;9.302;2022-11-20T00:53:44;6.30;99.90
2100;DHT22;1055;48.854;9.302;2022-11-20T00:56:12;6.20;99.90
2100;DHT22;1055;48.854;9.302;2022-11-20T00:58:41;6.40;99.90
2100;DHT22;1055;48.854;9.302;2022-11-20T01:01:14;6.50;99.90
2100;DHT22;1055;48.854;9.302;2022-11-20T01:03:45;6.40;99.90
2100;DHT22;1055;48.854;9.302;2022-11-20T01:06:17;6.30;99.90
2100;DHT22;1055;48.854;9.302;2022-11-20T01:08:43;6.10;99.90
2100;DHT22;1055;48.854;9.302;2022-11-20T01:11:12;6.20;99.90
2100;DHT22;1055;48.854;9.302;2022-11-20T01:13:38;6.40;99.90
2100;DHT22;1055;48.854;9.302;2022-11-20T01:16:27;6.60;99.90
2100;DHT22;1055;48.854;9.302;2022-11-20T01:18:55;6.40;99.90
2100;DHT22;1055;48.854;9.302;2022-11-20T01:21:24;6.60;99.90
2100;DHT22;1055;48.854;9.302;2022-11-20T01:23:51;6.70;99.90
2100;DHT22;1055;48.854;9.302;2022-11-20T01:26:19;6.70;99.90
2100;DHT22;1055;48.854;9.302;2022-11-20T01:28:45;6.70;99.90
2100;DHT22;1055;48.854;9.302;2022-11-20T01:31:24;6.70;99.90
2100;DHT22;1055;48.854;9.302;2022-11-20T01:33:52;6.80;99.90
2100;DHT22;1055;48.854;9.302;2022-11-20T01:36:20;6.50;99.90
2100;DHT22;1055;48.854;9.302;2022-11-20T01:38:47;6.60;99.90
2100;DHT22;1055;48.854;9.302;2022-11-20T01:41:14;6.40;99.90
2100;DHT22;1055;48.854;9.302;2022-11-20T01:44:01;6.40;99.90
2100;DHT22;1055;48.854;9.302;2022-11-20T01:46:27;6.10;99.90
2100;DHT22;1055;48.854;9.302;2022-11-20T01:49:20;5.90;99.90
2100;DHT22;1055;48.854;9.302;2022-11-20T01:51:48;5.90;99.90
2100;DHT22;1055;48.854;9.302;2022-11-20T01:54:25;6.10;99.90
2100;DHT22;1055;48.854;9.302;2022-11-20T01:56:54;6.20;99.90
2100;DHT22;1055;48.854;9.302;2022-11-20T01:59:23;6.10;99.90
2100;DHT22;1055;48.854;9.302;2022-11-20T02:01:50;5.90;99.90
2100;DHT22;1055;48.854;9.302;2022-11-20T02:04:16;6.00;99.90
2100;DHT22;1055;48.854;9.302;2022-11-20T02:06:45;6.20;99.90
2100;DHT22;1055;48.854;9.302;2022-11-20T02:09:13;6.20;99.90
2100;DHT22;1055;48.854;9.302;2022-11-20T02:11:39;6.00;99.90
2100;DHT22;1055;48.854;9.302;2022-11-20T02:14:04;5.80;99.90
2100;DHT22;1055;48.854;9.302;2022-11-20T02:16:34;5.50;99.90
2100;DHT22;1055;48.854;9.302;2022-11-20T02:19:04;5.60;99.90
2100;DHT22;1055;48.854;9.302;2022-11-20T02:21:49;5.50;99.90
2100;DHT22;1055;48.854;9.302;2022-11-20T02:24:19;5.40;99.90
2100;DHT22;1055;48.854;9.302;2022-11-20T02:26:59;5.40;99.90
2100;DHT22;1055;48.854;9.302;2022-11-20T02:29:34;5.30;99.90
2100;DHT22;1055;48.854;9.302;2022-11-20T02:32:02;5.30;99.90
2100;DHT22;1055;48.854;9.302;2022-11-20T02:34:28;5.20;99.90
2100;DHT22;1055;48.854;9.302;2022-11-20T02:36:55;5.10;99.90
2100;DHT22;1055;48.854;9.302;2022-11-20T02:39:24;5.10;99.90
2100;DHT22;1055;48.854;9.302;2022-11-20T02:41:52;5.10;99.90
2100;DHT22;1055;48.854;9.302;2022-11-20T02:44:18;5.20;99.90
2100;DHT22;1055;48.854;9.302;2022-11-20T02:46:44;5.30;99.90
2100;DHT22;1055;48.854;9.302;2022-11-20T02:49:09;5.40;99.90
2100;DHT22;1055;48.854;9.302;2022-11-20T02:51:35;5.40;99.90
2100;DHT22;1055;48.854;9.302;2022-11-20T02:54:01;5.60;99.90
2100;DHT22;1055;48.854;9.302;2022-11-20T02:56:27;5.60;99.90
2100;DHT22;1055;48.854;9.302;2022-11-20T02:58:52;5.60;99.90
2100;DHT22;1055;48.854;9.302;2022-11-20T03:01:18;5.60;99.90
2100;DHT22;1055;48.854;9.302;2022-11-20T03:03:44;5.80;99.90
2100;DHT22;1055;48.854;9.302;2022-11-20T03:06:09;5.70;99.90
2100;DHT22;1055;48.854;9.302;2022-11-20T03:08:35;5.80;99.90
2100;DHT22;1055;48.854;9.302;2022-11-20T03:11:06;5.90;99.90
2100;DHT22;1055;48.854;9.302;2022-11-20T03:13:32;5.80;99.90
2100;DHT22;1055;48.854;9.302;2022-11-20T03:15:58;5.80;99.90
2100;DHT22;1055;48.854;9.302;2022-11-20T03:18:23;5.90;99.90
2100;DHT22;1055;48.854;9.302;2022-11-20T03:20:49;5.90;99.90
2100;DHT22;1055;48.854;9.302;2022-11-20T03:23:14;5.80;99.90
2100;DHT22;1055;48.854;9.302;2022-11-20T03:25:40;5.90;99.90
2100;DHT22;1055;48.854;9.302;2022-11-20T03:28:06;5.90;99.90
2100;DHT22;1055;48.854;9.302;2022-11-20T03:30:31;5.90;99.90
2100;DHT22;1055;48.854;9.302;2022-11-20T03:32:57;5.80;99.90
2100;DHT22;1055;48.854;9.302;2022-11-20T03:35:22;5.80;99.90
2100;DHT22;1055;48.854;9.302;2022-11-20T03:37:48;5.80;99.90
2100;DHT22;1055;48.854;9.302;2022-11-20T03:40:14;5.80;99.90
2100;DHT22;1055;48.854;9.302;2022-11-20T03:42:39;5.70;99.90
2100;DHT22;1055;48.854;9.302;2022-11-20T03:45:15;5.70;99.90
2100;DHT22;1055;48.854;9.302;2022-11-20T03:47:42;5.60;99.90
2100;DHT22;1055;48.854;9.302;2022-11-20T03:50:09;5.60;99.90
2100;DHT22;1055;48.854;9.302;2022-11-20T03:52:35;5.60;99.90
2100;DHT22;1055;48.854;9.302;2022-11-20T03:55:00;5.60;99.90
2100;DHT22;1055;48.854;9.302;2022-11-20T03:57:26;5.60;99.90
2100;DHT22;1055;48.854;9.302;2022-11-20T03:59:52;5.60;99.90
2100;DHT22;1055;48.854;9.302;2022-11-20T04:02:18;5.50;99.90
2100;DHT22;1055;48.854;9.302;2022-11-20T04:04:43;5.60;99.90
2100;DHT22;1055;48.854;9.302;2022-11-20T04:07:09;5.60;99.90
2100;DHT22;1055;48.854;9.302;2022-11-20T04:09:35;5.60;99.90
2100;DHT22;1055;48.854;9.302;2022-11-20T04:12:01;5.60;99.90
2100;DHT22;1055;48.854;9.302;2022-11-20T04:14:26;5.70;99.90
2100;DHT22;1055;48.854;9.302;2022-11-20T04:16:52;5.60;99.90
2100;DHT22;1055;48.854;9.302;2022-11-20T04:19:17;5.70;99.90
2100;DHT22;1055;48.854;9.302;2022-11-20T04:21:44;5.80;99.90
2100;DHT22;1055;48.854;9.302;2022-11-20T04:24:10;5.70;99.90
2100;DHT22;1055;48.854;9.302;2022-11-20T04:26:36;5.70;99.90
2100;DHT22;1055;48.854;9.302;2022-11-20T04:29:02;5.80;99.90
2100;DHT22;1055;48.854;9.302;2022-11-20T04:31:31;5.70;99.90
2100;DHT22;1055;48.854;9.302;2022-11-20T04:34:00;5.60;99.90
2100;DHT22;1055;48.854;9.302;2022-11-20T04:36:27;5.80;99.90
2100;DHT22;1055;48.854;9.302;2022-11-20T04:38:58;5.70;99.90
2100;DHT22;1055;48.854;9.302;2022-11-20T04:41:26;5.60;99.90
2100;DHT22;1055;48.854;9.302;2022-11-20T04:43:54;5.70;99.90
2100;DHT22;1055;48.854;9.302;2022-11-20T04:46:25;5.70;99.90
2100;DHT22;1055;48.854;9.302;2022-11-20T04:48:51;5.70;99.90
2100;DHT22;1055;48.854;9.302;2022-11-20T04:51:16;5.70;99.90
2100;DHT22;1055;48.854;9.302;2022-11-20T04:53:42;5.70;99.90
2100;DHT22;1055;48.854;9.302;2022-11-20T04:56:10;5.60;99.90
2100;DHT22;1055;48.854;9.302;2022-11-20T04:58:36;5.60;99.90
2100;DHT22;1055;48.854;9.302;2022-11-20T05:01:07;5.70;99.90
2100;DHT22;1055;48.854;9.302;2022-11-20T05:03:34;5.80;99.90
2100;DHT22;1055;48.854;9.302;2022-11-20T05:06:01;5.70;99.90
2100;DHT22;1055;48.854;9.302;2022-11-20T05:08:27;5.80;99.90
2100;DHT22;1055;48.854;9.302;2022-11-20T05:10:52;5.70;99.90
2100;DHT22;1055;48.854;9.302;2022-11-20T05:13:18;5.90;99.90
2100;DHT22;1055;48.854;9.302;2022-11-20T05:15:44;5.90;99.90
2100;DHT22;1055;48.854;9.302;2022-11-20T05:18:09;6.00;99.90
2100;DHT22;1055;48.854;9.302;2022-11-20T05:20:35;6.10;99.90
2100;DHT22;1055;48.854;9.302;2022-11-20T05:23:01;6.20;99.90
2100;DHT22;1055;48.854;9.302;2022-11-20T05:25:27;6.20;99.90
2100;DHT22;1055;48.854;9.302;2022-11-20T05:27:53;6.20;99.90
2100;DHT22;1055;48.854;9.302;2022-11-20T05:30:18;6.20;99.90
2100;DHT22;1055;48.854;9.302;2022-11-20T05:32:44;6.10;99.90
2100;DHT22;1055;48.854;9.302;2022-11-20T05:35:10;6.30;99.90
2100;DHT22;1055;48.854;9.302;2022-11-20T05:37:35;6.10;99.90
2100;DHT22;1055;48.854;9.302;2022-11-20T05:40:01;6.10;99.90
2100;DHT22;1055;48.854;9.302;2022-11-20T05:42:33;6.10;99.90
2100;DHT22;1055;48.854;9.302;2022-11-20T05:45:04;6.00;99.90
2100;DHT22;1055;48.854;9.302;2022-11-20T05:47:33;6.00;99.90
2100;DHT22;1055;48.854;9.302;2022-11-20T05:49:59;6.00;99.90
2100;DHT22;1055;48.854;9.302;2022-11-20T05:52:28;5.90;99.90
2100;DHT22;1055;48.854;9.302;2022-11-20T05:54:54;5.80;99.90
2100;DHT22;1055;48.854;9.302;2022-11-20T05:57:20;5.80;99.90
2100;DHT22;1055;48.854;9.302;2022-11-20T05:59:45;5.80;99.90
2100;DHT22;1055;48.854;9.302;2022-11-20T06:02:11;5.80;99.90
2100;DHT22;1055;48.854;9.302;2022-11-20T06:04:37;5.80;99.90
2100;DHT22;1055;48.854;9.302;2022-11-20T06:07:04;5.80;99.90
2100;DHT22;1055;48.854;9.302;2022-11-20T06:09:29;5.90;99.90
2100;DHT22;1055;48.854;9.302;2022-11-20T06:11:55;5.80;99.90
2100;DHT22;1055;48.854;9.302;2022-11-20T06:14:20;5.80;99.90
2100;DHT22;1055;48.854;9.302;2022-11-20T06:16:46;5.80;99.90
2100;DHT22;1055;48.854;9.302;2022-11-20T06:19:12;5.90;99.90
2100;DHT22;1055;48.854;9.302;2022-11-20T06:21:37;5.90;99.90
2100;DHT22;1055;48.854;9.302;2022-11-20T06:24:03;5.90;99.90
2100;DHT22;1055;48.854;9.302;2022-11-20T06:26:30;5.80;99.90
2100;DHT22;1055;48.854;9.302;2022-11-20T06:28:55;5.80;99.90
2100;DHT22;1055;48.854;9.302;2022-11-20T06:31:23;5.80;99.90
2100;DHT22;1055;48.854;9.302;2022-11-20T06:33:49;5.80;99.90
2100;DHT22;1055;48.854;9.302;2022-11-20T06:36:17;5.80;99.90
2100;DHT22;1055;48.854;9.302;2022-11-20T06:38:43;5.80;99.90
2100;DHT22;1055;48.854;9.302;2022-11-20T06:41:12;5.90;99.90
2100;DHT22;1055;48.854;9.302;2022-11-20T06:43:38;5.90;99.90
2100;DHT22;1055;48.854;9.302;2022-11-20T06:46:03;5.90;99.90
2100;DHT22;1055;48.854;9.302;2022-11-20T06:48:29;5.90;99.90
2100;DHT22;1055;48.854;9.302;2022-11-20T06:50:55;6.10;99.90
2100;DHT22;1055;48.854;9.302;2022-11-20T06:53:22;6.00;99.90
2100;DHT22;1055;48.854;9.302;2022-11-20T06:55:50;6.10;99.90
2100;DHT22;1055;48.854;9.302;2022-11-20T06:58:17;6.10;99.90
2100;DHT22;1055;48.854;9.302;2022-11-20T07:00:43;6.10;99.90
2100;DHT22;1055;48.854;9.302;2022-11-20T07:03:10;6.00;99.90
2100;DHT22;1055;48.854;9.302;2022-11-20T07:05:36;6.00;99.90
2100;DHT22;1055;48.854;9.302;2022-11-20T07:08:04;6.00;99.90
2100;DHT22;1055;48.854;9.302;2022-11-20T07:10:30;6.00;99.90
2100;DHT22;1055;48.854;9.302;2022-11-20T07:12:56;6.20;99.90
2100;DHT22;1055;48.854;9.302;2022-11-20T07:15:23;6.10;99.90
2100;DHT22;1055;48.854;9.302;2022-11-20T07:17:49;5.90;99.90
2100;DHT22;1055;48.854;9.302;2022-11-20T07:20:15;6.00;99.90
2100;DHT22;1055;48.854;9.302;2022-11-20T07:22:41;6.00;99.90
2100;DHT22;1055;48.854;9.302;2022-11-20T07:25:08;6.10;99.90
2100;DHT22;1055;48.854;9.302;2022-11-20T07:27:34;6.00;99.90
2100;DHT22;1055;48.854;9.302;2022-11-20T07:30:00;6.00;99.90
2100;DHT22;1055;48.854;9.302;2022-11-20T07:32:26;6.10;99.90
2100;DHT22;1055;48.854;9.302;2022-11-20T07:34:51;6.20;99.90
2100;DHT22;1055;48.854;9.302;2022-11-20T07:37:17;6.20;99.90
2100;DHT22;1055;48.854;9.302;2022-11-20T07:39:43;6.20;99.90
2100;DHT22;1055;48.854;9.302;2022-11-20T07:42:09;6.40;99.90
2100;DHT22;1055;48.854;9.302;2022-11-20T07:44:35;6.40;99.90
2100;DHT22;1055;48.854;9.302;2022-11-20T07:47:01;6.40;99.90
2100;DHT22;1055;48.854;9.302;2022-11-20T07:49:27;6.40;99.90
2100;DHT22;1055;48.854;9.302;2022-11-20T07:51:53;6.50;99.90
2100;DHT22;1055;48.854;9.302;2022-11-20T07:54:19;6.50;99.90
2100;DHT22;1055;48.854;9.302;2022-11-20T07:56:46;6.50;99.90
2100;DHT22;1055;48.854;9.302;2022-11-20T07:59:11;6.50;99.90
2100;DHT22;1055;48.854;9.302;2022-11-20T08:01:38;6.40;99.90
2100;DHT22;1055;48.854;9.302;2022-11-20T08:04:03;6.50;99.90
2100;DHT22;1055;48.854;9.302;2022-11-20T08:06:29;6.50;99.90
2100;DHT22;1055;48.854;9.302;2022-11-20T08:08:55;6.50;99.90
2100;DHT22;1055;48.854;9.302;2022-11-20T08:11:20;6.50;99.90
2100;DHT22;1055;48.854;9.302;2022-11-20T08:14:05;6.50;99.90
2100;DHT22;1055;48.854;9.302;2022-11-20T08:16:45;6.50;99.90
2100;DHT22;1055;48.854;9.302;2022-11-20T08:19:12;6.40;99.90
2100;DHT22;1055;48.854;9.302;2022-11-20T08:21:38;6.40;99.90
2100;DHT22;1055;48.854;9.302;2022-11-20T08:24:05;6.50;99.90
2100;DHT22;1055;48.854;9.302;2022-11-20T08:26:31;6.50;99.90
2100;DHT22;1055;48.854;9.302;2022-11-20T08:28:57;6.60;99.90
2100;DHT22;1055;48.854;9.302;2022-11-20T08:31:24;6.70;99.90
2100;DHT22;1055;48.854;9.302;2022-11-20T08:33:50;6.70;99.90
2100;DHT22;1055;48.854;9.302;2022-11-20T08:36:16;6.80;99.90
2100;DHT22;1055;48.854;9.302;2022-11-20T08:38:46;6.90;99.90
2100;DHT22;1055;48.854;9.302;2022-11-20T08:41:12;7.00;99.90
2100;DHT22;1055;48.854;9.302;2022-11-20T08:43:55;7.10;99.90
2100;DHT22;1055;48.854;9.302;2022-11-20T08:46:21;7.10;99.90
2100;DHT22;1055;48.854;9.302;2022-11-20T08:48:47;7.10;99.90
2100;DHT22;1055;48.854;9.302;2022-11-20T08:51:13;7.20;99.90
2100;DHT22;1055;48.854;9.302;2022-11-20T08:53:39;7.20;99.90
2100;DHT22;1055;48.854;9.302;2022-11-20T08:56:06;7.20;99.90
2100;DHT22;1055;48.854;9.302;2022-11-20T08:58:32;7.30;99.90
2100;DHT22;1055;48.854;9.302;2022-11-20T09:00:57;7.30;99.90
2100;DHT22;1055;48.854;9.302;2022-11-20T09:03:23;7.30;99.90
2100;DHT22;1055;48.854;9.302;2022-11-20T09:05:49;7.30;99.90
2100;DHT22;1055;48.854;9.302;2022-11-20T09:08:14;7.30;99.90
2100;DHT22;1055;48.854;9.302;2022-11-20T09:10:40;7.40;99.90
2100;DHT22;1055;48.854;9.302;2022-11-20T09:13:06;7.40;99.90
2100;DHT22;1055;48.854;9.302;2022-11-20T09:15:32;7.40;99.90
2100;DHT22;1055;48.854;9.302;2022-11-20T09:18:02;7.40;99.90
2100;DHT22;1055;48.854;9.302;2022-11-20T09:20:30;7.60;99.90
2100;DHT22;1055;48.854;9.302;2022-11-20T09:22:56;7.50;99.90
2100;DHT22;1055;48.854;9.302;2022-11-20T09:25:22;7.60;99.90
2100;DHT22;1055;48.854;9.302;2022-11-20T09:27:47;7.60;99.90
2100;DHT22;1055;48.854;9.302;2022-11-20T09:30:14;7.50;99.90
2100;DHT22;1055;48.854;9.302;2022-11-20T09:32:40;7.50;99.90
2100;DHT22;1055;48.854;9.302;2022-11-20T09:35:06;7.70;99.90
2100;DHT22;1055;48.854;9.302;2022-11-20T09:37:32;7.70;99.90
2100;DHT22;1055;48.854;9.302;2022-11-20T09:39:58;7.70;99.90
2100;DHT22;1055;48.854;9.302;2022-11-20T09:47:37;7.70;99.90
2100;DHT22;1055;48.854;9.302;2022-11-20T09:55:36;7.60;99.90
2100;DHT22;1055;48.854;9.302;2022-11-20T09:58:06;7.60;99.90
2100;DHT22;1055;48.854;9.302;2022-11-20T10:00:34;7.60;99.90
2100;DHT22;1055;48.854;9.302;2022-11-20T10:03:11;7.60;99.90
2100;DHT22;1055;48.854;9.302;2022-11-20T10:05:51;7.70;99.90
2100;DHT22;1055;48.854;9.302;2022-11-20T10:14:19;7.60;99.90
2100;DHT22;1055;48.854;9.302;2022-11-20T10:25:18;7.40;99.90
2100;DHT22;1055;48.854;9.302;2022-11-20T10:30:43;7.40;99.90
2100;DHT22;1055;48.854;9.302;2022-11-20T10:33:31;7.30;99.90
2100;DHT22;1055;48.854;9.302;2022-11-20T10:36:08;7.30;99.90
2100;DHT22;1055;48.854;9.302;2022-11-20T10:38:57;7.20;99.90
2100;DHT22;1055;48.854;9.302;2022-11-20T10:41:27;7.30;99.90
2100;DHT22;1055;48.854;9.302;2022-11-20T10:44:05;7.20;99.90
2100;DHT22;1055;48.854;9.302;2022-11-20T10:46:43;7.20;99.90
2100;DHT22;1055;48.854;9.302;2022-11-20T10:49:18;7.10;99.90
2100;DHT22;1055;48.854;9.302;2022-11-20T10:51:51;7.10;99.90
2100;DHT22;1055;48.854;9.302;2022-11-20T10:59:55;7.10;99.90
2100;DHT22;1055;48.854;9.302;2022-11-20T11:02:39;7.10;99.90
2100;DHT22;1055;48.854;9.302;2022-11-20T11:05:33;7.10;99.90
2100;DHT22;1055;48.854;9.302;2022-11-20T11:08:00;6.90;99.90
2100;DHT22;1055;48.854;9.302;2022-11-20T11:12:58;7.10;99.90
2100;DHT22;1055;48.854;9.302;2022-11-20T11:15:27;7.00;99.90
2100;DHT22;1055;48.854;9.302;2022-11-20T11:17:54;6.90;99.90
2100;DHT22;1055;48.854;9.302;2022-11-20T11:20:25;7.00;99.90
2100;DHT22;1055;48.854;9.302;2022-11-20T11:22:53;7.10;99.90
2100;DHT22;1055;48.854;9.302;2022-11-20T11:25:31;7.20;99.90
2100;DHT22;1055;48.854;9.302;2022-11-20T11:28:19;7.20;99.90
2100;DHT22;1055;48.854;9.302;2022-11-20T11:30:45;7.30;99.90
2100;DHT22;1055;48.854;9.302;2022-11-20T11:33:19;7.40;99.90
2100;DHT22;1055;48.854;9.302;2022-11-20T11:35:47;7.30;99.90
2100;DHT22;1055;48.854;9.302;2022-11-20T11:38:16;7.30;99.90
2100;DHT22;1055;48.854;9.302;2022-11-20T11:40:43;7.30;99.90
2100;DHT22;1055;48.854;9.302;2022-11-20T11:43:26;7.40;99.90
2100;DHT22;1055;48.854;9.302;2022-11-20T11:46:32;7.60;99.90
2100;DHT22;1055;48.854;9.302;2022-11-20T11:54:25;7.80;99.90
2100;DHT22;1055;48.854;9.302;2022-11-20T11:56:51;7.80;99.90
2100;DHT22;1055;48.854;9.302;2022-11-20T11:59:54;7.80;99.90
2100;DHT22;1055;48.854;9.302;2022-11-20T12:05:10;8.00;99.90
2100;DHT22;1055;48.854;9.302;2022-11-20T12:07:43;8.20;99.90
2100;DHT22;1055;48.854;9.302;2022-11-20T12:10:20;8.20;99.90
2100;DHT22;1055;48.854;9.302;2022-11-20T12:13:02;8.30;99.90
2100;DHT22;1055;48.854;9.302;2022-11-20T12:15:33;8.40;99.90
2100;DHT22;1055;48.854;9.302;2022-11-20T12:17:58;8.50;99.90
2100;DHT22;1055;48.854;9.302;2022-11-20T12:20:30;8.60;99.90
2100;DHT22;1055;48.854;9.302;2022-11-20T12:25:30;8.50;99.90
2100;DHT22;1055;48.854;9.302;2022-11-20T12:28:34;8.60;99.90
2100;DHT22;1055;48.854;9.302;2022-11-20T12:33:55;8.60;99.90
2100;DHT22;1055;48.854;9.302;2022-11-20T12:39:03;8.60;99.90
2100;DHT22;1055;48.854;9.302;2022-11-20T12:44:57;8.80;99.90
2100;DHT22;1055;48.854;9.302;2022-11-20T12:48:09;9.00;99.90
2100;DHT22;1055;48.854;9.302;2022-11-20T12:53:33;9.10;99.90
2100;DHT22;1055;48.854;9.302;2022-11-20T13:01:38;9.10;99.90
2100;DHT22;1055;48.854;9.302;2022-11-20T13:04:29;9.00;99.90
2100;DHT22;1055;48.854;9.302;2022-11-20T13:07:01;8.80;99.90
2100;DHT22;1055;48.854;9.302;2022-11-20T13:09:27;8.60;99.90
2100;DHT22;1055;48.854;9.302;2022-11-20T13:12:14;8.60;99.90
2100;DHT22;1055;48.854;9.302;2022-11-20T13:17:46;8.50;99.90
2100;DHT22;1055;48.854;9.302;2022-11-20T13:20:16;8.40;99.90
2100;DHT22;1055;48.854;9.302;2022-11-20T13:22:53;8.40;99.90
2100;DHT22;1055;48.854;9.302;2022-11-20T13:25:34;8.50;99.90
2100;DHT22;1055;48.854;9.302;2022-11-20T13:30:50;8.50;99.90
2100;DHT22;1055;48.854;9.302;2022-11-20T13:36:06;8.50;99.90
2100;DHT22;1055;48.854;9.302;2022-11-20T13:38:52;8.60;99.90
2100;DHT22;1055;48.854;9.302;2022-11-20T13:41:35;8.70;99.90
2100;DHT22;1055;48.854;9.302;2022-11-20T13:44:10;8.90;99.90
2100;DHT22;1055;48.854;9.302;2022-11-20T13:46:45;9.10;99.90
2100;DHT22;1055;48.854;9.302;2022-11-20T13:49:38;9.10;99.90
2100;DHT22;1055;48.854;9.302;2022-11-20T14:00:13;9.30;99.90
2100;DHT22;1055;48.854;9.302;2022-11-20T14:02:40;9.10;99.90
2100;DHT22;1055;48.854;9.302;2022-11-20T14:05:17;9.10;99.90
2100;DHT22;1055;48.854;9.302;2022-11-20T14:07:45;9.00;99.90
2100;DHT22;1055;48.854;9.302;2022-11-20T14:10:40;9.10;99.90
2100;DHT22;1055;48.854;9.302;2022-11-20T14:13:18;9.00;99.90
2100;DHT22;1055;48.854;9.302;2022-11-20T14:15:44;9.00;99.90
2100;DHT22;1055;48.854;9.302;2022-11-20T14:18:15;9.10;99.90
2100;DHT22;1055;48.854;9.302;2022-11-20T14:20:44;9.20;99.90
2100;DHT22;1055;48.854;9.302;2022-11-20T14:23:10;9.10;99.90
2100;DHT22;1055;48.854;9.302;2022-11-20T14:25:37;8.80;99.90
2100;DHT22;1055;48.854;9.302;2022-11-20T14:28:24;8.80;99.90
2100;DHT22;1055;48.854;9.302;2022-11-20T14:30:50;8.60;99.90
2100;DHT22;1055;48.854;9.302;2022-11-20T14:33:17;8.60;99.90
2100;DHT22;1055;48.854;9.302;2022-11-20T14:35:47;8.60;99.90
2100;DHT22;1055;48.854;9.302;2022-11-20T14:38:16;8.60;99.90
2100;DHT22;1055;48.854;9.302;2022-11-20T14:40:43;8.50;99.90
2100;DHT22;1055;48.854;9.302;2022-11-20T14:43:28;8.40;99.90
2100;DHT22;1055;48.854;9.302;2022-11-20T14:46:06;8.40;99.90
2100;DHT22;1055;48.854;9.302;2022-11-20T14:48:49;8.40;99.90
2100;DHT22;1055;48.854;9.302;2022-11-20T14:53:49;8.30;99.90
2100;DHT22;1055;48.854;9.302;2022-11-20T14:56:22;8.30;99.90
2100;DHT22;1055;48.854;9.302;2022-11-20T14:58:56;8.20;99.90
2100;DHT22;1055;48.854;9.302;2022-11-20T15:01:29;8.20;99.90
2100;DHT22;1055;48.854;9.302;2022-11-20T15:04:09;8.20;99.90
2100;DHT22;1055;48.854;9.302;2022-11-20T15:06:35;8.10;99.90
2100;DHT22;1055;48.854;9.302;2022-11-20T15:09:03;7.90;99.90
2100;DHT22;1055;48.854;9.302;2022-11-20T15:11:32;8.00;99.90
2100;DHT22;1055;48.854;9.302;2022-11-20T15:14:03;7.80;99.90
2100;DHT22;1055;48.854;9.302;2022-11-20T15:16:29;7.80;99.90
2100;DHT22;1055;48.854;9.302;2022-11-20T15:18:56;7.90;99.90
2100;DHT22;1055;48.854;9.302;2022-11-20T15:21:22;7.80;99.90
2100;DHT22;1055;48.854;9.302;2022-11-20T15:23:48;7.90;99.90
2100;DHT22;1055;48.854;9.302;2022-11-20T15:26:20;7.70;99.90
2100;DHT22;1055;48.854;9.302;2022-11-20T15:28:47;7.60;99.90
2100;DHT22;1055;48.854;9.302;2022-11-20T15:31:17;7.60;99.90
2100;DHT22;1055;48.854;9.302;2022-11-20T15:33:43;7.60;99.90
2100;DHT22;1055;48.854;9.302;2022-11-20T15:36:09;7.60;99.90
2100;DHT22;1055;48.854;9.302;2022-11-20T15:38:35;7.60;99.90
2100;DHT22;1055;48.854;9.302;2022-11-20T15:41:01;7.60;99.90
2100;DHT22;1055;48.854;9.302;2022-11-20T15:43:26;7.50;99.90
2100;DHT22;1055;48.854;9.302;2022-11-20T15:46:08;7.40;99.90
2100;DHT22;1055;48.854;9.302;2022-11-20T15:48:45;7.30;99.90
2100;DHT22;1055;48.854;9.302;2022-11-20T15:53:50;7.20;99.90
2100;DHT22;1055;48.854;9.302;2022-11-20T15:56:16;7.10;99.90
2100;DHT22;1055;48.854;9.302;2022-11-20T15:58:41;7.00;99.90
2100;DHT22;1055;48.854;9.302;2022-11-20T16:01:15;6.90;99.90
2100;DHT22;1055;48.854;9.302;2022-11-20T16:03:41;6.90;99.90
2100;DHT22;1055;48.854;9.302;2022-11-20T16:06:07;6.80;99.90
2100;DHT22;1055;48.854;9.302;2022-11-20T16:08:33;6.80;99.90
2100;DHT22;1055;48.854;9.302;2022-11-20T16:10:58;6.80;99.90
2100;DHT22;1055;48.854;9.302;2022-11-20T16:13:25;6.70;99.90
2100;DHT22;1055;48.854;9.302;2022-11-20T16:18:45;7.20;99.90
2100;DHT22;1055;48.854;9.302;2022-11-20T16:21:11;7.40;99.90
2100;DHT22;1055;48.854;9.302;2022-11-20T16:23:38;7.50;99.90
2100;DHT22;1055;48.854;9.302;2022-11-20T16:26:15;7.60;99.90
2100;DHT22;1055;48.854;9.302;2022-11-20T16:28:42;7.50;99.90
2100;DHT22;1055;48.854;9.302;2022-11-20T16:31:17;7.70;99.90
2100;DHT22;1055;48.854;9.302;2022-11-20T16:33:42;7.70;99.90
2100;DHT22;1055;48.854;9.302;2022-11-20T16:36:13;7.40;99.90
2100;DHT22;1055;48.854;9.302;2022-11-20T16:38:39;7.00;99.90
2100;DHT22;1055;48.854;9.302;2022-11-20T16:41:05;6.80;99.90
2100;DHT22;1055;48.854;9.302;2022-11-20T16:43:31;6.70;99.90
2100;DHT22;1055;48.854;9.302;2022-11-20T16:45:57;6.70;99.90
2100;DHT22;1055;48.854;9.302;2022-11-20T16:48:23;6.60;99.90
2100;DHT22;1055;48.854;9.302;2022-11-20T16:50:50;6.70;99.90
2100;DHT22;1055;48.854;9.302;2022-11-20T16:53:21;6.80;99.90
2100;DHT22;1055;48.854;9.302;2022-11-20T16:55:47;6.80;99.90
2100;DHT22;1055;48.854;9.302;2022-11-20T16:58:13;6.70;99.90
2100;DHT22;1055;48.854;9.302;2022-11-20T17:00:40;6.70;99.90
2100;DHT22;1055;48.854;9.302;2022-11-20T17:03:06;6.80;99.90
2100;DHT22;1055;48.854;9.302;2022-11-20T17:05:32;6.80;99.90
2100;DHT22;1055;48.854;9.302;2022-11-20T17:07:58;6.90;99.90
2100;DHT22;1055;48.854;9.302;2022-11-20T17:10:24;6.80;99.90
2100;DHT22;1055;48.854;9.302;2022-11-20T17:12:50;6.90;99.90
2100;DHT22;1055;48.854;9.302;2022-11-20T17:15:16;6.90;99.90
2100;DHT22;1055;48.854;9.302;2022-11-20T17:17:41;7.00;99.90
2100;DHT22;1055;48.854;9.302;2022-11-20T17:20:07;6.90;99.90
2100;DHT22;1055;48.854;9.302;2022-11-20T17:22:33;6.90;99.90
2100;DHT22;1055;48.854;9.302;2022-11-20T17:24:59;6.90;99.90
2100;DHT22;1055;48.854;9.302;2022-11-20T17:27:24;6.90;99.90
2100;DHT22;1055;48.854;9.302;2022-11-20T17:29:51;7.00;99.90
2100;DHT22;1055;48.854;9.302;2022-11-20T17:32:19;7.00;99.90
2100;DHT22;1055;48.854;9.302;2022-11-20T17:34:44;7.00;99.90
2100;DHT22;1055;48.854;9.302;2022-11-20T17:37:10;6.90;99.90
2100;DHT22;1055;48.854;9.302;2022-11-20T17:39:36;6.90;99.90
2100;DHT22;1055;48.854;9.302;2022-11-20T17:42:02;6.90;99.90
2100;DHT22;1055;48.854;9.302;2022-11-20T17:44:46;6.90;99.90
2100;DHT22;1055;48.854;9.302;2022-11-20T17:47:12;6.90;99.90
2100;DHT22;1055;48.854;9.302;2022-11-20T17:49:38;6.90;99.90
2100;DHT22;1055;48.854;9.302;2022-11-20T17:52:04;6.90;99.90
2100;DHT22;1055;48.854;9.302;2022-11-20T17:54:29;6.90;99.90
2100;DHT22;1055;48.854;9.302;2022-11-20T17:56:55;6.90;99.90